sensor_id;sensor_type;location;lat;lon;timestamp;temperature;humidity
18160;DHT22;9205;52.032;4.314;2023-12-20T00:02:21;7.80;22.50
18160;DHT22;9205;52.032;4.314;2023-12-20T00:04:49;7.80;25.90
18160;DHT22;9205;52.032;4.314;2023-12-20T00:07:16;7.80;4.40
18160;DHT22;9205;52.032;4.314;2023-12-20T00:09:43;8.00;1.00
18160;DHT22;9205;52.032;4.314;2023-12-20T00:12:10;8.00;1.00
18160;DHT22;9205;52.032;4.314;2023-12-20T00:14:38;7.80;1.00
18160;DHT22;9205;52.032;4.314;2023-12-20T00:17:05;7.80;1.00
18160;DHT22;9205;52.032;4.314;2023-12-20T00:19:34;8.00;1.00
18160;DHT22;9205;52.032;4.314;2023-12-20T00:22:01;8.00;1.00
18160;DHT22;9205;52.032;4.314;2023-12-20T00:24:29;7.90;1.00
18160;DHT22;9205;52.032;4.314;2023-12-20T00:26:56;7.90;1.00
18160;DHT22;9205;52.032;4.314;2023-12-20T00:29:23;7.90;1.00
18160;DHT22;9205;52.032;4.314;2023-12-20T00:31:50;7.90;1.00
18160;DHT22;9205;52.032;4.314;2023-12-20T00:34:17;8.00;1.00
18160;DHT22;9205;52.032;4.314;2023-12-20T00:36:46;7.80;1.00
18160;DHT22;9205;52.032;4.314;2023-12-20T00:39:13;8.00;1.00
18160;DHT22;9205;52.032;4.314;2023-12-20T00:41:40;7.80;99.90
18160;DHT22;9205;52.032;4.314;2023-12-20T00:44:07;7.90;99.90
18160;DHT22;9205;52.032;4.314;2023-12-20T00:46:34;7.90;99.90
18160;DHT22;9205;52.032;4.314;2023-12-20T00:49:01;8.00;1.00
18160;DHT22;9205;52.032;4.314;2023-12-20T00:51:28;8.00;1.00
18160;DHT22;9205;52.032;4.314;2023-12-20T00:53:57;8.10;1.00
18160;DHT22;9205;52.032;4.314;2023-12-20T00:56:24;8.10;1.00
18160;DHT22;9205;52.032;4.314;2023-12-20T00:58:51;8.00;28.80
18160;DHT22;9205;52.032;4.314;2023-12-20T01:01:18;8.00;92.60
18160;DHT22;9205;52.032;4.314;2023-12-20T01:03:45;8.00;99.90
18160;DHT22;9205;52.032;4.314;2023-12-20T01:06:12;8.00;99.90
18160;DHT22;9205;52.032;4.314;2023-12-20T01:08:39;8.10;92.30
18160;DHT22;9205;52.032;4.314;2023-12-20T01:11:08;8.00;46.20
18160;DHT22;9205;52.032;4.314;2023-12-20T01:13:35;8.10;94.70
18160;DHT22;9205;52.032;4.314;2023-12-20T01:16:03;8.00;82.70
18160;DHT22;9205;52.032;4.314;2023-12-20T01:18:31;8.00;79.30
18160;DHT22;9205;52.032;4.314;2023-12-20T01:21:01;8.20;55.50
18160;DHT22;9205;52.032;4.314;2023-12-20T01:23:29;8.00;1.00
18160;DHT22;9205;52.032;4.314;2023-12-20T01:25:56;8.20;1.00
18160;DHT22;9205;52.032;4.314;2023-12-20T01:28:26;8.10;1.00
18160;DHT22;9205;52.032;4.314;2023-12-20T01:30:54;8.20;1.00
18160;DHT22;9205;52.032;4.314;2023-12-20T01:33:21;8.20;1.00
18160;DHT22;9205;52.032;4.314;2023-12-20T01:35:48;8.20;1.00
18160;DHT22;9205;52.032;4.314;2023-12-20T01:38:15;8.20;1.00
18160;DHT22;9205;52.032;4.314;2023-12-20T01:40:44;8.10;1.00
18160;DHT22;9205;52.032;4.314;2023-12-20T01:43:11;8.10;1.00
18160;DHT22;9205;52.032;4.314;2023-12-20T01:45:40;8.10;1.00
18160;DHT22;9205;52.032;4.314;2023-12-20T01:48:09;8.10;1.00
18160;DHT22;9205;52.032;4.314;2023-12-20T01:50:37;8.10;1.00
18160;DHT22;9205;52.032;4.314;2023-12-20T01:53:05;8.20;1.00
18160;DHT22;9205;52.032;4.314;2023-12-20T01:55:36;8.20;1.00
18160;DHT22;9205;52.032;4.314;2023-12-20T01:58:08;8.20;1.00
18160;DHT22;9205;52.032;4.314;2023-12-20T02:00:36;8.10;1.00
18160;DHT22;9205;52.032;4.314;2023-12-20T02:03:05;8.10;1.00
18160;DHT22;9205;52.032;4.314;2023-12-20T02:05:34;8.10;1.00
18160;DHT22;9205;52.032;4.314;2023-12-20T02:08:03;8.00;1.00
18160;DHT22;9205;52.032;4.314;2023-12-20T02:10:31;8.00;1.00
18160;DHT22;9205;52.032;4.314;2023-12-20T02:12:58;8.00;1.00
18160;DHT22;9205;52.032;4.314;2023-12-20T02:15:25;8.00;1.00
18160;DHT22;9205;52.032;4.314;2023-12-20T02:17:53;7.90;1.00
18160;DHT22;9205;52.032;4.314;2023-12-20T02:20:22;8.00;1.00
18160;DHT22;9205;52.032;4.314;2023-12-20T02:22:51;8.00;1.00
18160;DHT22;9205;52.032;4.314;2023-12-20T02:25:18;8.00;1.00
18160;DHT22;9205;52.032;4.314;2023-12-20T02:27:45;8.00;1.00
18160;DHT22;9205;52.032;4.314;2023-12-20T02:30:12;7.90;1.00
18160;DHT22;9205;52.032;4.314;2023-12-20T02:32:39;8.10;1.00
18160;DHT22;9205;52.032;4.314;2023-12-20T02:35:07;8.00;1.00
18160;DHT22;9205;52.032;4.314;2023-12-20T02:37:34;8.10;1.00
18160;DHT22;9205;52.032;4.314;2023-12-20T02:40:03;8.20;99.90
18160;DHT22;9205;52.032;4.314;2023-12-20T02:42:31;8.20;99.90
18160;DHT22;9205;52.032;4.314;2023-12-20T02:44:58;8.20;99.90
18160;DHT22;9205;52.032;4.314;2023-12-20T02:47:25;8.30;99.90
18160;DHT22;9205;52.032;4.314;2023-12-20T02:49:51;8.10;1.00
18160;DHT22;9205;52.032;4.314;2023-12-20T02:52:18;8.20;99.90
18160;DHT22;9205;52.032;4.314;2023-12-20T02:54:45;8.20;99.90
18160;DHT22;9205;52.032;4.314;2023-12-20T02:57:14;8.20;99.90
18160;DHT22;9205;52.032;4.314;2023-12-20T02:59:41;8.20;99.90
18160;DHT22;9205;52.032;4.314;2023-12-20T03:02:08;8.20;99.90
18160;DHT22;9205;52.032;4.314;2023-12-20T03:04:35;8.20;99.90
18160;DHT22;9205;52.032;4.314;2023-12-20T03:07:02;8.10;65.90
18160;DHT22;9205;52.032;4.314;2023-12-20T03:09:29;8.20;1.00
18160;DHT22;9205;52.032;4.314;2023-12-20T03:11:57;8.10;1.00
18160;DHT22;9205;52.032;4.314;2023-12-20T03:14:25;8.10;1.00
18160;DHT22;9205;52.032;4.314;2023-12-20T03:16:52;8.20;1.00
18160;DHT22;9205;52.032;4.314;2023-12-20T03:19:19;8.00;1.00
18160;DHT22;9205;52.032;4.314;2023-12-20T03:21:46;8.00;1.00
18160;DHT22;9205;52.032;4.314;2023-12-20T03:24:13;8.00;1.00
18160;DHT22;9205;52.032;4.314;2023-12-20T03:26:41;8.10;1.00
18160;DHT22;9205;52.032;4.314;2023-12-20T03:29:08;8.00;1.00
18160;DHT22;9205;52.032;4.314;2023-12-20T03:31:36;8.10;1.00
18160;DHT22;9205;52.032;4.314;2023-12-20T03:34:03;8.00;1.00
18160;DHT22;9205;52.032;4.314;2023-12-20T03:36:30;8.00;1.00
18160;DHT22;9205;52.032;4.314;2023-12-20T03:38:57;8.00;1.00
18160;DHT22;9205;52.032;4.314;2023-12-20T03:41:24;7.90;1.00
18160;DHT22;9205;52.032;4.314;2023-12-20T03:43:52;7.90;1.00
18160;DHT22;9205;52.032;4.314;2023-12-20T03:46:19;7.90;1.00
18160;DHT22;9205;52.032;4.314;2023-12-20T03:48:47;8.00;1.00
18160;DHT22;9205;52.032;4.314;2023-12-20T03:51:14;7.90;1.00
18160;DHT22;9205;52.032;4.314;2023-12-20T03:53:42;8.00;18.50
18160;DHT22;9205;52.032;4.314;2023-12-20T03:56:09;8.00;99.90
18160;DHT22;9205;52.032;4.314;2023-12-20T03:58:36;8.00;99.90
18160;DHT22;9205;52.032;4.314;2023-12-20T04:01:03;7.90;99.90
18160;DHT22;9205;52.032;4.314;2023-12-20T04:03:35;8.00;99.90
18160;DHT22;9205;52.032;4.314;2023-12-20T04:06:04;8.00;1.00
18160;DHT22;9205;52.032;4.314;2023-12-20T04:08:31;8.00;1.00
18160;DHT22;9205;52.032;4.314;2023-12-20T04:10:58;7.90;1.00
18160;DHT22;9205;52.032;4.314;2023-12-20T04:13:25;8.00;1.00
18160;DHT22;9205;52.032;4.314;2023-12-20T04:15:52;7.90;1.00
18160;DHT22;9205;52.032;4.314;2023-12-20T04:18:19;7.90;99.90
18160;DHT22;9205;52.032;4.314;2023-12-20T04:20:46;7.90;99.90
18160;DHT22;9205;52.032;4.314;2023-12-20T04:23:16;7.80;99.90
18160;DHT22;9205;52.032;4.314;2023-12-20T04:25:43;7.80;57.70
18160;DHT22;9205;52.032;4.314;2023-12-20T04:28:10;8.00;1.00
18160;DHT22;9205;52.032;4.314;2023-12-20T04:30:37;7.80;1.00
18160;DHT22;9205;52.032;4.314;2023-12-20T04:33:04;7.80;1.00
18160;DHT22;9205;52.032;4.314;2023-12-20T04:35:31;7.90;1.00
18160;DHT22;9205;52.032;4.314;2023-12-20T04:37:59;8.00;1.00
18160;DHT22;9205;52.032;4.314;2023-12-20T04:40:27;7.90;1.00
18160;DHT22;9205;52.032;4.314;2023-12-20T04:42:54;7.90;1.00
18160;DHT22;9205;52.032;4.314;2023-12-20T04:45:21;7.90;1.00
18160;DHT22;9205;52.032;4.314;2023-12-20T04:47:50;7.90;1.00
18160;DHT22;9205;52.032;4.314;2023-12-20T04:50:17;7.90;1.00
18160;DHT22;9205;52.032;4.314;2023-12-20T04:52:45;7.80;1.00
18160;DHT22;9205;52.032;4.314;2023-12-20T04:55:12;7.80;1.40
18160;DHT22;9205;52.032;4.314;2023-12-20T04:57:40;7.90;99.90
18160;DHT22;9205;52.032;4.314;2023-12-20T05:00:09;7.90;99.90
18160;DHT22;9205;52.032;4.314;2023-12-20T05:02:37;8.00;99.90
18160;DHT22;9205;52.032;4.314;2023-12-20T05:05:04;8.00;99.90
18160;DHT22;9205;52.032;4.314;2023-12-20T05:07:31;8.00;99.90
18160;DHT22;9205;52.032;4.314;2023-12-20T05:09:59;7.90;99.90
18160;DHT22;9205;52.032;4.314;2023-12-20T05:12:26;7.90;99.90
18160;DHT22;9205;52.032;4.314;2023-12-20T05:14:54;7.90;99.90
18160;DHT22;9205;52.032;4.314;2023-12-20T05:17:22;7.80;99.90
18160;DHT22;9205;52.032;4.314;2023-12-20T05:19:49;7.80;1.00
18160;DHT22;9205;52.032;4.314;2023-12-20T05:22:16;8.00;99.90
18160;DHT22;9205;52.032;4.314;2023-12-20T05:24:43;7.90;99.90
18160;DHT22;9205;52.032;4.314;2023-12-20T05:27:11;7.90;99.90
18160;DHT22;9205;52.032;4.314;2023-12-20T05:29:38;7.90;99.90
18160;DHT22;9205;52.032;4.314;2023-12-20T05:32:06;7.90;99.90
18160;DHT22;9205;52.032;4.314;2023-12-20T05:34:33;8.10;1.00
18160;DHT22;9205;52.032;4.314;2023-12-20T05:37:01;8.00;99.90
18160;DHT22;9205;52.032;4.314;2023-12-20T05:39:28;8.10;99.90
18160;DHT22;9205;52.032;4.314;2023-12-20T05:41:56;8.20;99.90
18160;DHT22;9205;52.032;4.314;2023-12-20T05:44:23;8.10;99.90
18160;DHT22;9205;52.032;4.314;2023-12-20T05:46:50;8.00;99.90
18160;DHT22;9205;52.032;4.314;2023-12-20T05:49:19;8.10;99.90
18160;DHT22;9205;52.032;4.314;2023-12-20T05:51:47;8.00;99.90
18160;DHT22;9205;52.032;4.314;2023-12-20T05:54:14;8.10;99.90
18160;DHT22;9205;52.032;4.314;2023-12-20T05:56:41;8.10;99.90
18160;DHT22;9205;52.032;4.314;2023-12-20T05:59:09;8.10;99.90
18160;DHT22;9205;52.032;4.314;2023-12-20T06:01:36;8.20;99.90
18160;DHT22;9205;52.032;4.314;2023-12-20T06:04:03;8.20;99.90
18160;DHT22;9205;52.032;4.314;2023-12-20T06:06:32;8.10;99.90
18160;DHT22;9205;52.032;4.314;2023-12-20T06:08:59;8.30;99.90
18160;DHT22;9205;52.032;4.314;2023-12-20T06:11:28;8.30;99.90
18160;DHT22;9205;52.032;4.314;2023-12-20T06:13:55;8.20;99.90
18160;DHT22;9205;52.032;4.314;2023-12-20T06:16:22;8.30;99.90
18160;DHT22;9205;52.032;4.314;2023-12-20T06:18:49;8.30;92.80
18160;DHT22;9205;52.032;4.314;2023-12-20T06:21:16;8.20;99.90
18160;DHT22;9205;52.032;4.314;2023-12-20T06:23:45;8.30;99.90
18160;DHT22;9205;52.032;4.314;2023-12-20T06:26:12;8.30;99.90
18160;DHT22;9205;52.032;4.314;2023-12-20T06:28:39;8.40;99.90
18160;DHT22;9205;52.032;4.314;2023-12-20T06:31:06;8.30;99.90
18160;DHT22;9205;52.032;4.314;2023-12-20T06:33:34;8.20;99.90
18160;DHT22;9205;52.032;4.314;2023-12-20T06:36:01;8.30;99.90
18160;DHT22;9205;52.032;4.314;2023-12-20T06:38:27;8.20;99.90
18160;DHT22;9205;52.032;4.314;2023-12-20T06:40:56;8.30;99.90
18160;DHT22;9205;52.032;4.314;2023-12-20T06:43:24;8.10;99.90
18160;DHT22;9205;52.032;4.314;2023-12-20T06:45:51;8.20;99.90
18160;DHT22;9205;52.032;4.314;2023-12-20T06:48:18;8.20;99.90
18160;DHT22;9205;52.032;4.314;2023-12-20T06:50:46;8.20;99.90
18160;DHT22;9205;52.032;4.314;2023-12-20T06:53:13;8.10;99.90
18160;DHT22;9205;52.032;4.314;2023-12-20T06:55:40;8.10;99.90
18160;DHT22;9205;52.032;4.314;2023-12-20T06:58:09;8.20;99.90
18160;DHT22;9205;52.032;4.314;2023-12-20T07:00:36;8.10;1.00
18160;DHT22;9205;52.032;4.314;2023-12-20T07:03:04;8.00;1.00
18160;DHT22;9205;52.032;4.314;2023-12-20T07:05:31;8.10;1.00
18160;DHT22;9205;52.032;4.314;2023-12-20T07:07:58;8.20;1.00
18160;DHT22;9205;52.032;4.314;2023-12-20T07:10:26;8.20;1.00
18160;DHT22;9205;52.032;4.314;2023-12-20T07:12:53;8.10;99.90
18160;DHT22;9205;52.032;4.314;2023-12-20T07:15:22;8.10;1.00
18160;DHT22;9205;52.032;4.314;2023-12-20T07:17:49;8.00;1.00
18160;DHT22;9205;52.032;4.314;2023-12-20T07:20:16;8.00;1.00
18160;DHT22;9205;52.032;4.314;2023-12-20T07:22:43;8.10;99.90
18160;DHT22;9205;52.032;4.314;2023-12-20T07:25:10;8.10;99.90
18160;DHT22;9205;52.032;4.314;2023-12-20T07:27:37;8.00;1.00
18160;DHT22;9205;52.032;4.314;2023-12-20T07:30:05;8.00;1.00
18160;DHT22;9205;52.032;4.314;2023-12-20T07:32:34;8.00;1.00
18160;DHT22;9205;52.032;4.314;2023-12-20T07:35:02;8.20;1.00
18160;DHT22;9205;52.032;4.314;2023-12-20T07:37:29;8.00;1.00
18160;DHT22;9205;52.032;4.314;2023-12-20T07:39:56;8.10;1.00
18160;DHT22;9205;52.032;4.314;2023-12-20T07:42:23;8.00;1.00
18160;DHT22;9205;52.032;4.314;2023-12-20T07:44:51;8.00;1.00
18160;DHT22;9205;52.032;4.314;2023-12-20T07:47:18;8.00;1.00
18160;DHT22;9205;52.032;4.314;2023-12-20T07:49:49;8.20;1.00
18160;DHT22;9205;52.032;4.314;2023-12-20T07:52:17;8.10;1.00
18160;DHT22;9205;52.032;4.314;2023-12-20T07:54:44;8.20;1.00
18160;DHT22;9205;52.032;4.314;2023-12-20T07:57:12;8.10;99.50
18160;DHT22;9205;52.032;4.314;2023-12-20T07:59:39;8.20;99.90
18160;DHT22;9205;52.032;4.314;2023-12-20T08:02:06;8.20;99.90
18160;DHT22;9205;52.032;4.314;2023-12-20T08:04:33;8.20;99.90
18160;DHT22;9205;52.032;4.314;2023-12-20T08:07:02;8.20;87.90
18160;DHT22;9205;52.032;4.314;2023-12-20T08:09:29;8.20;62.20
18160;DHT22;9205;52.032;4.314;2023-12-20T08:11:57;8.30;38.60
18160;DHT22;9205;52.032;4.314;2023-12-20T08:14:25;8.20;16.90
18160;DHT22;9205;52.032;4.314;2023-12-20T08:16:52;8.20;9.20
18160;DHT22;9205;52.032;4.314;2023-12-20T08:19:19;8.40;17.10
18160;DHT22;9205;52.032;4.314;2023-12-20T08:21:47;8.40;1.00
18160;DHT22;9205;52.032;4.314;2023-12-20T08:24:15;8.40;1.00
18160;DHT22;9205;52.032;4.314;2023-12-20T08:26:42;8.50;1.00
18160;DHT22;9205;52.032;4.314;2023-12-20T08:29:09;8.50;1.00
18160;DHT22;9205;52.032;4.314;2023-12-20T08:31:36;8.60;1.00
18160;DHT22;9205;52.032;4.314;2023-12-20T08:34:03;8.50;1.00
18160;DHT22;9205;52.032;4.314;2023-12-20T08:36:31;8.50;1.00
18160;DHT22;9205;52.032;4.314;2023-12-20T08:38:58;8.50;1.00
18160;DHT22;9205;52.032;4.314;2023-12-20T08:41:27;8.60;1.00
18160;DHT22;9205;52.032;4.314;2023-12-20T08:43:55;8.60;1.00
18160;DHT22;9205;52.032;4.314;2023-12-20T08:46:22;8.70;1.00
18160;DHT22;9205;52.032;4.314;2023-12-20T08:48:49;8.70;1.00
18160;DHT22;9205;52.032;4.314;2023-12-20T08:51:16;8.70;1.00
18160;DHT22;9205;52.032;4.314;2023-12-20T08:53:43;8.70;1.00
18160;DHT22;9205;52.032;4.314;2023-12-20T08:56:13;8.80;1.00
18160;DHT22;9205;52.032;4.314;2023-12-20T08:58:41;8.80;1.00
18160;DHT22;9205;52.032;4.314;2023-12-20T09:01:08;8.80;1.00
18160;DHT22;9205;52.032;4.314;2023-12-20T09:03:36;8.90;1.00
18160;DHT22;9205;52.032;4.314;2023-12-20T09:06:03;8.90;1.00
18160;DHT22;9205;52.032;4.314;2023-12-20T09:08:31;9.00;99.90
18160;DHT22;9205;52.032;4.314;2023-12-20T09:10:58;9.10;99.90
18160;DHT22;9205;52.032;4.314;2023-12-20T09:13:26;9.10;99.90
18160;DHT22;9205;52.032;4.314;2023-12-20T09:15:55;9.00;99.90
18160;DHT22;9205;52.032;4.314;2023-12-20T09:18:23;9.00;99.90
18160;DHT22;9205;52.032;4.314;2023-12-20T09:20:50;9.10;99.90
18160;DHT22;9205;52.032;4.314;2023-12-20T09:23:17;9.00;99.90
18160;DHT22;9205;52.032;4.314;2023-12-20T09:25:45;9.00;99.90
18160;DHT22;9205;52.032;4.314;2023-12-20T09:28:12;9.00;99.90
18160;DHT22;9205;52.032;4.314;2023-12-20T09:30:39;9.10;99.90
18160;DHT22;9205;52.032;4.314;2023-12-20T09:33:08;9.00;99.90
18160;DHT22;9205;52.032;4.314;2023-12-20T09:35:35;8.90;99.90
18160;DHT22;9205;52.032;4.314;2023-12-20T09:38:02;9.00;99.90
18160;DHT22;9205;52.032;4.314;2023-12-20T09:40:32;9.00;99.90
18160;DHT22;9205;52.032;4.314;2023-12-20T09:43:04;8.90;99.90
18160;DHT22;9205;52.032;4.314;2023-12-20T09:45:32;9.00;99.90
18160;DHT22;9205;52.032;4.314;2023-12-20T09:47:59;9.10;99.90
18160;DHT22;9205;52.032;4.314;2023-12-20T09:50:28;9.10;99.90
18160;DHT22;9205;52.032;4.314;2023-12-20T09:52:58;9.20;1.00
18160;DHT22;9205;52.032;4.314;2023-12-20T09:55:30;9.20;1.00
18160;DHT22;9205;52.032;4.314;2023-12-20T09:57:59;9.20;1.00
18160;DHT22;9205;52.032;4.314;2023-12-20T10:00:27;9.10;1.00
18160;DHT22;9205;52.032;4.314;2023-12-20T10:02:57;9.10;1.00
18160;DHT22;9205;52.032;4.314;2023-12-20T10:05:28;9.20;1.00
18160;DHT22;9205;52.032;4.314;2023-12-20T10:07:57;9.30;1.00
18160;DHT22;9205;52.032;4.314;2023-12-20T10:10:25;9.30;1.00
18160;DHT22;9205;52.032;4.314;2023-12-20T10:13:03;9.40;1.00
18160;DHT22;9205;52.032;4.314;2023-12-20T10:15:32;9.40;1.00
18160;DHT22;9205;52.032;4.314;2023-12-20T10:18:00;9.40;1.00
18160;DHT22;9205;52.032;4.314;2023-12-20T10:20:29;9.40;1.00
18160;DHT22;9205;52.032;4.314;2023-12-20T10:22:57;9.40;1.00
18160;DHT22;9205;52.032;4.314;2023-12-20T10:25:26;9.40;1.00
18160;DHT22;9205;52.032;4.314;2023-12-20T10:28:08;9.40;1.00
18160;DHT22;9205;52.032;4.314;2023-12-20T10:30:36;9.50;1.00
18160;DHT22;9205;52.032;4.314;2023-12-20T10:33:05;9.50;1.00
18160;DHT22;9205;52.032;4.314;2023-12-20T10:35:35;9.40;1.00
18160;DHT22;9205;52.032;4.314;2023-12-20T10:38:04;9.50;1.00
18160;DHT22;9205;52.032;4.314;2023-12-20T10:40:34;9.50;1.00
18160;DHT22;9205;52.032;4.314;2023-12-20T10:43:03;9.40;1.00
18160;DHT22;9205;52.032;4.314;2023-12-20T10:45:31;9.60;1.00
18160;DHT22;9205;52.032;4.314;2023-12-20T10:47:58;9.60;1.00
18160;DHT22;9205;52.032;4.314;2023-12-20T10:50:27;9.50;1.00
18160;DHT22;9205;52.032;4.314;2023-12-20T10:52:57;9.60;1.00
18160;DHT22;9205;52.032;4.314;2023-12-20T10:55:25;9.60;1.00
18160;DHT22;9205;52.032;4.314;2023-12-20T10:57:54;9.70;1.00
18160;DHT22;9205;52.032;4.314;2023-12-20T11:00:28;9.70;1.00
18160;DHT22;9205;52.032;4.314;2023-12-20T11:03:00;9.70;1.00
18160;DHT22;9205;52.032;4.314;2023-12-20T11:05:36;9.80;1.00
18160;DHT22;9205;52.032;4.314;2023-12-20T11:08:11;9.80;1.00
18160;DHT22;9205;52.032;4.314;2023-12-20T11:10:47;9.80;1.00
18160;DHT22;9205;52.032;4.314;2023-12-20T11:13:22;9.80;1.00
18160;DHT22;9205;52.032;4.314;2023-12-20T11:15:52;9.80;1.00
18160;DHT22;9205;52.032;4.314;2023-12-20T11:18:29;9.80;99.90
18160;DHT22;9205;52.032;4.314;2023-12-20T11:21:00;9.80;99.90
18160;DHT22;9205;52.032;4.314;2023-12-20T11:23:32;9.70;99.90
18160;DHT22;9205;52.032;4.314;2023-12-20T11:26:00;9.70;99.90
18160;DHT22;9205;52.032;4.314;2023-12-20T11:28:29;9.70;99.90
18160;DHT22;9205;52.032;4.314;2023-12-20T11:30:58;9.70;99.90
18160;DHT22;9205;52.032;4.314;2023-12-20T11:33:30;9.80;99.90
18160;DHT22;9205;52.032;4.314;2023-12-20T11:35:59;9.80;99.90
18160;DHT22;9205;52.032;4.314;2023-12-20T11:38:26;9.80;99.90
18160;DHT22;9205;52.032;4.314;2023-12-20T11:40:55;9.80;99.90
18160;DHT22;9205;52.032;4.314;2023-12-20T11:43:41;9.80;99.90
18160;DHT22;9205;52.032;4.314;2023-12-20T11:46:09;9.80;99.90
18160;DHT22;9205;52.032;4.314;2023-12-20T11:48:37;9.80;99.90
18160;DHT22;9205;52.032;4.314;2023-12-20T11:51:09;9.90;99.90
18160;DHT22;9205;52.032;4.314;2023-12-20T11:53:37;9.80;99.90
18160;DHT22;9205;52.032;4.314;2023-12-20T11:56:06;9.80;99.90
18160;DHT22;9205;52.032;4.314;2023-12-20T11:58:34;9.90;99.90
18160;DHT22;9205;52.032;4.314;2023-12-20T12:01:01;10.00;99.90
18160;DHT22;9205;52.032;4.314;2023-12-20T12:03:30;9.90;99.90
18160;DHT22;9205;52.032;4.314;2023-12-20T12:05:58;9.90;99.90
18160;DHT22;9205;52.032;4.314;2023-12-20T12:08:26;9.90;11.60
18160;DHT22;9205;52.032;4.314;2023-12-20T12:10:53;10.00;1.00
18160;DHT22;9205;52.032;4.314;2023-12-20T12:13:22;9.90;1.00
18160;DHT22;9205;52.032;4.314;2023-12-20T12:15:53;9.90;1.00
18160;DHT22;9205;52.032;4.314;2023-12-20T12:18:20;9.90;1.00
18160;DHT22;9205;52.032;4.314;2023-12-20T12:20:47;9.80;1.00
18160;DHT22;9205;52.032;4.314;2023-12-20T12:23:22;9.90;1.00
18160;DHT22;9205;52.032;4.314;2023-12-20T12:25:50;9.90;1.00
18160;DHT22;9205;52.032;4.314;2023-12-20T12:28:17;9.90;1.00
18160;DHT22;9205;52.032;4.314;2023-12-20T12:30:57;9.90;1.00
18160;DHT22;9205;52.032;4.314;2023-12-20T12:33:25;9.90;1.00
18160;DHT22;9205;52.032;4.314;2023-12-20T12:35:52;9.90;1.00
18160;DHT22;9205;52.032;4.314;2023-12-20T12:38:20;9.90;1.00
18160;DHT22;9205;52.032;4.314;2023-12-20T12:40:48;9.90;1.00
18160;DHT22;9205;52.032;4.314;2023-12-20T12:43:15;9.90;1.00
18160;DHT22;9205;52.032;4.314;2023-12-20T12:45:43;10.00;1.00
18160;DHT22;9205;52.032;4.314;2023-12-20T12:48:11;9.90;10.10
18160;DHT22;9205;52.032;4.314;2023-12-20T12:50:39;10.00;99.90
18160;DHT22;9205;52.032;4.314;2023-12-20T12:53:06;9.80;99.90
18160;DHT22;9205;52.032;4.314;2023-12-20T12:55:35;9.90;99.90
18160;DHT22;9205;52.032;4.314;2023-12-20T12:58:02;9.90;99.90
18160;DHT22;9205;52.032;4.314;2023-12-20T13:00:30;9.80;99.90
18160;DHT22;9205;52.032;4.314;2023-12-20T13:02:57;9.80;99.90
18160;DHT22;9205;52.032;4.314;2023-12-20T13:05:25;9.80;1.00
18160;DHT22;9205;52.032;4.314;2023-12-20T13:07:53;9.70;1.00
18160;DHT22;9205;52.032;4.314;2023-12-20T13:10:20;9.70;1.00
18160;DHT22;9205;52.032;4.314;2023-12-20T13:12:48;9.80;1.00
18160;DHT22;9205;52.032;4.314;2023-12-20T13:15:15;9.80;1.00
18160;DHT22;9205;52.032;4.314;2023-12-20T13:17:42;9.70;1.00
18160;DHT22;9205;52.032;4.314;2023-12-20T13:20:09;9.80;1.00
18160;DHT22;9205;52.032;4.314;2023-12-20T13:22:38;9.70;1.00
18160;DHT22;9205;52.032;4.314;2023-12-20T13:25:05;9.80;1.00
18160;DHT22;9205;52.032;4.314;2023-12-20T13:27:33;9.80;1.00
18160;DHT22;9205;52.032;4.314;2023-12-20T13:30:00;9.70;1.00
18160;DHT22;9205;52.032;4.314;2023-12-20T13:32:28;9.70;1.00
18160;DHT22;9205;52.032;4.314;2023-12-20T13:34:56;9.70;14.30
18160;DHT22;9205;52.032;4.314;2023-12-20T13:37:23;9.70;99.90
18160;DHT22;9205;52.032;4.314;2023-12-20T13:39:52;9.60;99.90
18160;DHT22;9205;52.032;4.314;2023-12-20T13:42:19;9.60;99.90
18160;DHT22;9205;52.032;4.314;2023-12-20T13:44:46;9.70;99.90
18160;DHT22;9205;52.032;4.314;2023-12-20T13:47:14;9.70;99.90
18160;DHT22;9205;52.032;4.314;2023-12-20T13:49:41;9.70;99.90
18160;DHT22;9205;52.032;4.314;2023-12-20T13:52:08;9.70;99.90
18160;DHT22;9205;52.032;4.314;2023-12-20T13:54:35;9.60;1.00
18160;DHT22;9205;52.032;4.314;2023-12-20T13:57:04;9.60;1.00
18160;DHT22;9205;52.032;4.314;2023-12-20T13:59:32;9.70;1.00
18160;DHT22;9205;52.032;4.314;2023-12-20T14:01:59;9.60;1.00
18160;DHT22;9205;52.032;4.314;2023-12-20T14:04:28;9.60;1.00
18160;DHT22;9205;52.032;4.314;2023-12-20T14:06:56;9.60;1.00
18160;DHT22;9205;52.032;4.314;2023-12-20T14:09:24;9.70;1.00
18160;DHT22;9205;52.032;4.314;2023-12-20T14:11:51;9.70;1.00
18160;DHT22;9205;52.032;4.314;2023-12-20T14:14:18;9.50;1.00
18160;DHT22;9205;52.032;4.314;2023-12-20T14:16:46;9.60;70.60
18160;DHT22;9205;52.032;4.314;2023-12-20T14:19:13;9.60;86.50
18160;DHT22;9205;52.032;4.314;2023-12-20T14:21:40;9.50;52.70
18160;DHT22;9205;52.032;4.314;2023-12-20T14:24:08;9.50;90.50
18160;DHT22;9205;52.032;4.314;2023-12-20T14:26:35;9.60;99.90
18160;DHT22;9205;52.032;4.314;2023-12-20T14:29:02;9.60;99.90
18160;DHT22;9205;52.032;4.314;2023-12-20T14:31:31;9.60;99.90
18160;DHT22;9205;52.032;4.314;2023-12-20T14:33:58;9.50;99.90
18160;DHT22;9205;52.032;4.314;2023-12-20T14:36:29;9.50;99.90
18160;DHT22;9205;52.032;4.314;2023-12-20T14:38:56;9.40;99.90
18160;DHT22;9205;52.032;4.314;2023-12-20T14:41:24;9.40;99.90
18160;DHT22;9205;52.032;4.314;2023-12-20T14:43:51;9.40;99.90
18160;DHT22;9205;52.032;4.314;2023-12-20T14:46:19;9.60;99.90
18160;DHT22;9205;52.032;4.314;2023-12-20T14:48:47;9.50;99.90
18160;DHT22;9205;52.032;4.314;2023-12-20T14:51:15;9.50;99.90
18160;DHT22;9205;52.032;4.314;2023-12-20T14:53:42;9.40;1.00
18160;DHT22;9205;52.032;4.314;2023-12-20T14:56:10;9.40;1.00
18160;DHT22;9205;52.032;4.314;2023-12-20T14:58:37;9.50;1.00
18160;DHT22;9205;52.032;4.314;2023-12-20T15:01:04;9.30;1.00
18160;DHT22;9205;52.032;4.314;2023-12-20T15:03:34;9.30;1.00
18160;DHT22;9205;52.032;4.314;2023-12-20T15:06:03;9.40;1.00
18160;DHT22;9205;52.032;4.314;2023-12-20T15:08:30;9.30;1.00
18160;DHT22;9205;52.032;4.314;2023-12-20T15:10:57;9.50;1.00
18160;DHT22;9205;52.032;4.314;2023-12-20T15:13:25;9.40;1.00
18160;DHT22;9205;52.032;4.314;2023-12-20T15:15:52;9.40;26.30
18160;DHT22;9205;52.032;4.314;2023-12-20T15:18:19;9.20;99.90
18160;DHT22;9205;52.032;4.314;2023-12-20T15:20:46;9.20;99.90
18160;DHT22;9205;52.032;4.314;2023-12-20T15:23:15;9.30;99.90
18160;DHT22;9205;52.032;4.314;2023-12-20T15:25:43;9.30;99.90
18160;DHT22;9205;52.032;4.314;2023-12-20T15:28:10;9.20;99.90
18160;DHT22;9205;52.032;4.314;2023-12-20T15:30:37;9.30;99.90
18160;DHT22;9205;52.032;4.314;2023-12-20T15:33:04;9.40;99.90
18160;DHT22;9205;52.032;4.314;2023-12-20T15:35:31;9.10;99.90
18160;DHT22;9205;52.032;4.314;2023-12-20T15:37:59;9.20;99.90
18160;DHT22;9205;52.032;4.314;2023-12-20T15:40:28;9.30;99.90
18160;DHT22;9205;52.032;4.314;2023-12-20T15:42:55;9.30;99.90
18160;DHT22;9205;52.032;4.314;2023-12-20T15:45:23;9.10;99.90
18160;DHT22;9205;52.032;4.314;2023-12-20T15:47:50;9.20;99.90
18160;DHT22;9205;52.032;4.314;2023-12-20T15:50:18;9.30;99.90
18160;DHT22;9205;52.032;4.314;2023-12-20T15:52:45;9.20;99.90
18160;DHT22;9205;52.032;4.314;2023-12-20T15:55:12;9.10;99.90
18160;DHT22;9205;52.032;4.314;2023-12-20T15:57:41;9.30;99.90
18160;DHT22;9205;52.032;4.314;2023-12-20T16:00:09;9.10;99.90
18160;DHT22;9205;52.032;4.314;2023-12-20T16:02:36;8.90;99.90
18160;DHT22;9205;52.032;4.314;2023-12-20T16:05:04;9.00;99.90
18160;DHT22;9205;52.032;4.314;2023-12-20T16:07:32;8.80;99.90
18160;DHT22;9205;52.032;4.314;2023-12-20T16:09:59;9.00;99.90
18160;DHT22;9205;52.032;4.314;2023-12-20T16:12:26;8.80;99.90
18160;DHT22;9205;52.032;4.314;2023-12-20T16:14:55;8.80;99.90